sensor_id;sensor_type;location;lat;lon;timestamp;pressure;altitude;pressure_sealevel;temperature;humidity
61287;BME280;56412;53.148;8.204;2022-10-16T00:00:52;100900.34;;;18.56;52.93
61287;BME280;56412;53.148;8.204;2022-10-16T00:03:17;100905.47;;;18.57;52.52
61287;BME280;56412;53.148;8.204;2022-10-16T00:05:43;100904.03;;;18.44;52.55
61287;BME280;56412;53.148;8.204;2022-10-16T00:08:10;100916.22;;;18.45;52.98
61287;BME280;56412;53.148;8.204;2022-10-16T00:10:36;100907.91;;;18.30;52.85
61287;BME280;56412;53.148;8.204;2022-10-16T00:13:02;100918.78;;;18.35;52.62
61287;BME280;56412;53.148;8.204;2022-10-16T00:15:28;100926.81;;;18.43;52.56
61287;BME280;56412;53.148;8.204;2022-10-16T00:17:53;100910.25;;;18.33;52.93
61287;BME280;56412;53.148;8.204;2022-10-16T00:20:19;100908.88;;;18.38;52.62
61287;BME280;56412;53.148;8.204;2022-10-16T00:22:44;100916.06;;;18.36;52.79
61287;BME280;56412;53.148;8.204;2022-10-16T00:25:09;100919.66;;;18.35;52.77
61287;BME280;56412;53.148;8.204;2022-10-16T00:27:35;100912.19;;;18.41;52.59
61287;BME280;56412;53.148;8.204;2022-10-16T00:30:00;100920.75;;;18.33;52.43
61287;BME280;56412;53.148;8.204;2022-10-16T00:32:25;100923.84;;;18.17;52.83
61287;BME280;56412;53.148;8.204;2022-10-16T00:34:51;100912.44;;;18.28;52.80
61287;BME280;56412;53.148;8.204;2022-10-16T00:37:18;100917.41;;;18.31;52.28
61287;BME280;56412;53.148;8.204;2022-10-16T00:39:43;100929.09;;;18.17;52.65
61287;BME280;56412;53.148;8.204;2022-10-16T00:42:11;100932.16;;;18.22;52.73
61287;BME280;56412;53.148;8.204;2022-10-16T00:44:51;100929.06;;;18.07;52.94
61287;BME280;56412;53.148;8.204;2022-10-16T00:47:29;100938.72;;;18.07;52.47
61287;BME280;56412;53.148;8.204;2022-10-16T00:50:11;100932.94;;;18.13;52.74
61287;BME280;56412;53.148;8.204;2022-10-16T00:52:45;100939.50;;;17.98;52.87
61287;BME280;56412;53.148;8.204;2022-10-16T00:55:13;100942.28;;;18.06;52.96
61287;BME280;56412;53.148;8.204;2022-10-16T00:57:39;100933.66;;;18.15;52.63
61287;BME280;56412;53.148;8.204;2022-10-16T01:00:06;100930.88;;;18.16;52.39
61287;BME280;56412;53.148;8.204;2022-10-16T01:02:34;100928.81;;;18.20;52.31
61287;BME280;56412;53.148;8.204;2022-10-16T01:05:00;100929.69;;;18.21;52.45
61287;BME280;56412;53.148;8.204;2022-10-16T01:12:51;100910.19;;;18.23;52.31
61287;BME280;56412;53.148;8.204;2022-10-16T01:20:44;100916.97;;;18.16;52.50
61287;BME280;56412;53.148;8.204;2022-10-16T01:28:28;100917.66;;;18.18;52.15
61287;BME280;56412;53.148;8.204;2022-10-16T01:30:59;100922.91;;;18.18;52.64
61287;BME280;56412;53.148;8.204;2022-10-16T01:33:40;100920.97;;;18.20;52.32
61287;BME280;56412;53.148;8.204;2022-10-16T01:36:11;100922.09;;;18.27;51.98
61287;BME280;56412;53.148;8.204;2022-10-16T01:38:40;100924.56;;;18.29;52.25
61287;BME280;56412;53.148;8.204;2022-10-16T01:41:14;100923.63;;;18.30;52.04
61287;BME280;56412;53.148;8.204;2022-10-16T01:43:48;100922.94;;;18.28;51.98
61287;BME280;56412;53.148;8.204;2022-10-16T01:46:21;100934.25;;;18.28;52.19
61287;BME280;56412;53.148;8.204;2022-10-16T01:48:48;100917.28;;;18.32;52.08
61287;BME280;56412;53.148;8.204;2022-10-16T01:51:15;100929.00;;;18.38;52.09
61287;BME280;56412;53.148;8.204;2022-10-16T01:53:45;100933.84;;;18.33;51.71
61287;BME280;56412;53.148;8.204;2022-10-16T01:56:15;100941.00;;;18.31;51.83
61287;BME280;56412;53.148;8.204;2022-10-16T01:59:05;100936.59;;;18.31;51.81
61287;BME280;56412;53.148;8.204;2022-10-16T02:01:35;100939.47;;;18.28;51.85
61287;BME280;56412;53.148;8.204;2022-10-16T02:04:07;100934.25;;;18.28;51.92
61287;BME280;56412;53.148;8.204;2022-10-16T02:06:42;100935.38;;;18.35;51.72
61287;BME280;56412;53.148;8.204;2022-10-16T02:09:07;100942.00;;;18.30;51.73
61287;BME280;56412;53.148;8.204;2022-10-16T02:11:33;100937.13;;;18.25;52.07
61287;BME280;56412;53.148;8.204;2022-10-16T02:14:00;100944.03;;;18.26;52.05
61287;BME280;56412;53.148;8.204;2022-10-16T02:16:47;100942.25;;;18.27;51.87
61287;BME280;56412;53.148;8.204;2022-10-16T02:19:13;100942.94;;;18.29;51.75
61287;BME280;56412;53.148;8.204;2022-10-16T02:21:41;100945.97;;;18.24;52.15
61287;BME280;56412;53.148;8.204;2022-10-16T02:26:58;100944.56;;;18.20;51.91
61287;BME280;56412;53.148;8.204;2022-10-16T02:29:33;100944.03;;;18.26;51.90
61287;BME280;56412;53.148;8.204;2022-10-16T02:32:05;100937.69;;;18.29;52.05
61287;BME280;56412;53.148;8.204;2022-10-16T02:34:33;100937.41;;;18.32;51.94
61287;BME280;56412;53.148;8.204;2022-10-16T02:37:00;100931.91;;;18.35;51.57
61287;BME280;56412;53.148;8.204;2022-10-16T02:39:28;100935.22;;;18.37;51.78
61287;BME280;56412;53.148;8.204;2022-10-16T02:41:55;100931.09;;;18.34;51.44
61287;BME280;56412;53.148;8.204;2022-10-16T02:44:20;100926.53;;;18.36;51.66
61287;BME280;56412;53.148;8.204;2022-10-16T02:46:45;100927.91;;;18.31;51.70
61287;BME280;56412;53.148;8.204;2022-10-16T02:49:10;100925.56;;;18.37;51.69
61287;BME280;56412;53.148;8.204;2022-10-16T02:51:36;100934.53;;;18.35;51.28
61287;BME280;56412;53.148;8.204;2022-10-16T02:54:01;100929.44;;;18.33;51.64
61287;BME280;56412;53.148;8.204;2022-10-16T02:56:27;100923.09;;;18.36;51.25
61287;BME280;56412;53.148;8.204;2022-10-16T02:58:54;100930.41;;;18.32;51.23
61287;BME280;56412;53.148;8.204;2022-10-16T03:01:19;100931.34;;;18.31;51.29
61287;BME280;56412;53.148;8.204;2022-10-16T03:03:45;100925.28;;;18.31;51.21
61287;BME280;56412;53.148;8.204;2022-10-16T03:06:10;100944.59;;;18.30;51.29
61287;BME280;56412;53.148;8.204;2022-10-16T03:08:36;100942.25;;;18.27;51.50
61287;BME280;56412;53.148;8.204;2022-10-16T03:11:01;100943.34;;;18.24;51.28
61287;BME280;56412;53.148;8.204;2022-10-16T03:13:26;100945.16;;;18.24;51.32
61287;BME280;56412;53.148;8.204;2022-10-16T03:15:51;100933.50;;;18.16;51.63
61287;BME280;56412;53.148;8.204;2022-10-16T03:18:17;100934.34;;;18.17;51.27
61287;BME280;56412;53.148;8.204;2022-10-16T03:20:43;100938.50;;;18.20;51.54
61287;BME280;56412;53.148;8.204;2022-10-16T03:23:08;100935.59;;;18.23;51.48
61287;BME280;56412;53.148;8.204;2022-10-16T03:25:34;100937.41;;;18.22;51.29
61287;BME280;56412;53.148;8.204;2022-10-16T03:27:59;100937.41;;;18.22;51.40
61287;BME280;56412;53.148;8.204;2022-10-16T03:30:24;100945.41;;;18.21;51.45
61287;BME280;56412;53.148;8.204;2022-10-16T03:32:50;100939.31;;;18.20;51.24
61287;BME280;56412;53.148;8.204;2022-10-16T03:35:18;100931.31;;;18.22;51.38
61287;BME280;56412;53.148;8.204;2022-10-16T03:37:44;100936.69;;;18.20;51.59
61287;BME280;56412;53.148;8.204;2022-10-16T03:40:09;100939.75;;;18.25;51.40
61287;BME280;56412;53.148;8.204;2022-10-16T03:42:35;100940.00;;;18.22;51.67
61287;BME280;56412;53.148;8.204;2022-10-16T03:45:00;100946.25;;;18.31;51.61
61287;BME280;56412;53.148;8.204;2022-10-16T03:47:26;100953.16;;;18.32;51.48
61287;BME280;56412;53.148;8.204;2022-10-16T03:49:51;100951.78;;;18.28;51.57
61287;BME280;56412;53.148;8.204;2022-10-16T03:52:16;100960.34;;;18.30;51.35
61287;BME280;56412;53.148;8.204;2022-10-16T03:54:42;100961.00;;;18.32;51.82
61287;BME280;56412;53.148;8.204;2022-10-16T03:57:08;100958.44;;;18.42;51.53
61287;BME280;56412;53.148;8.204;2022-10-16T03:59:33;100962.28;;;18.37;51.30
61287;BME280;56412;53.148;8.204;2022-10-16T04:01:58;100961.28;;;18.29;51.90
61287;BME280;56412;53.148;8.204;2022-10-16T04:04:24;100968.78;;;18.33;51.75
61287;BME280;56412;53.148;8.204;2022-10-16T04:06:49;100973.03;;;18.34;51.64
61287;BME280;56412;53.148;8.204;2022-10-16T04:09:15;100984.22;;;18.36;52.00
61287;BME280;56412;53.148;8.204;2022-10-16T04:11:40;100981.31;;;18.30;52.26
61287;BME280;56412;53.148;8.204;2022-10-16T04:14:05;100988.78;;;18.34;52.25
61287;BME280;56412;53.148;8.204;2022-10-16T04:16:31;100986.59;;;18.39;52.15
61287;BME280;56412;53.148;8.204;2022-10-16T04:18:56;100986.06;;;18.46;52.00
61287;BME280;56412;53.148;8.204;2022-10-16T04:21:21;100997.78;;;18.42;52.30
61287;BME280;56412;53.148;8.204;2022-10-16T04:23:47;100984.13;;;18.48;51.89
61287;BME280;56412;53.148;8.204;2022-10-16T04:26:12;100988.41;;;18.49;52.11
61287;BME280;56412;53.148;8.204;2022-10-16T04:28:38;100978.91;;;18.48;52.23
61287;BME280;56412;53.148;8.204;2022-10-16T04:31:03;100978.72;;;18.39;52.31
61287;BME280;56412;53.148;8.204;2022-10-16T04:33:29;100985.41;;;18.53;52.24
61287;BME280;56412;53.148;8.204;2022-10-16T04:35:58;100981.53;;;18.57;52.36
61287;BME280;56412;53.148;8.204;2022-10-16T04:38:25;100982.53;;;18.66;51.96
61287;BME280;56412;53.148;8.204;2022-10-16T04:40:50;100975.09;;;18.71;52.01
61287;BME280;56412;53.148;8.204;2022-10-16T04:43:16;100978.66;;;18.70;51.97
61287;BME280;56412;53.148;8.204;2022-10-16T04:45:41;100973.16;;;18.73;52.06
61287;BME280;56412;53.148;8.204;2022-10-16T04:48:06;100992.25;;;18.75;51.88
61287;BME280;56412;53.148;8.204;2022-10-16T04:50:31;100998.81;;;18.70;52.14
61287;BME280;56412;53.148;8.204;2022-10-16T04:52:57;100995.66;;;18.66;52.00
61287;BME280;56412;53.148;8.204;2022-10-16T04:55:22;101002.13;;;18.62;52.36
61287;BME280;56412;53.148;8.204;2022-10-16T04:57:47;101015.88;;;18.45;53.03
61287;BME280;56412;53.148;8.204;2022-10-16T05:00:13;101017.53;;;18.46;52.72
61287;BME280;56412;53.148;8.204;2022-10-16T05:02:38;101016.16;;;18.42;53.00
61287;BME280;56412;53.148;8.204;2022-10-16T05:05:03;101016.09;;;18.32;53.20
61287;BME280;56412;53.148;8.204;2022-10-16T05:07:29;101020.81;;;18.38;53.58
61287;BME280;56412;53.148;8.204;2022-10-16T05:09:54;101006.44;;;18.32;53.67
61287;BME280;56412;53.148;8.204;2022-10-16T05:12:20;101018.50;;;18.45;53.31
61287;BME280;56412;53.148;8.204;2022-10-16T05:14:45;101016.81;;;18.44;53.47
61287;BME280;56412;53.148;8.204;2022-10-16T05:17:10;101012.00;;;18.39;53.75
61287;BME280;56412;53.148;8.204;2022-10-16T05:19:35;101015.81;;;18.35;53.91
61287;BME280;56412;53.148;8.204;2022-10-16T05:22:01;101009.72;;;18.25;54.10
61287;BME280;56412;53.148;8.204;2022-10-16T05:24:26;101007.16;;;18.44;53.51
61287;BME280;56412;53.148;8.204;2022-10-16T05:26:52;101014.72;;;18.37;53.80
61287;BME280;56412;53.148;8.204;2022-10-16T05:29:17;101012.25;;;18.36;53.74
61287;BME280;56412;53.148;8.204;2022-10-16T05:31:42;101019.56;;;18.32;53.77
61287;BME280;56412;53.148;8.204;2022-10-16T05:34:07;101020.28;;;18.44;53.40
61287;BME280;56412;53.148;8.204;2022-10-16T05:36:33;101024.31;;;18.48;53.62
61287;BME280;56412;53.148;8.204;2022-10-16T05:38:58;101016.41;;;18.38;53.92
61287;BME280;56412;53.148;8.204;2022-10-16T05:41:23;101016.75;;;18.24;54.14
61287;BME280;56412;53.148;8.204;2022-10-16T05:43:51;101020.53;;;18.41;53.69
61287;BME280;56412;53.148;8.204;2022-10-16T05:46:16;101023.94;;;18.32;54.13
61287;BME280;56412;53.148;8.204;2022-10-16T05:48:42;101032.81;;;18.41;53.88
61287;BME280;56412;53.148;8.204;2022-10-16T05:51:09;101038.50;;;18.46;53.80
61287;BME280;56412;53.148;8.204;2022-10-16T05:53:36;101042.38;;;18.42;53.89
61287;BME280;56412;53.148;8.204;2022-10-16T05:56:03;101058.66;;;18.45;53.79
61287;BME280;56412;53.148;8.204;2022-10-16T05:58:31;101063.75;;;18.37;54.21
61287;BME280;56412;53.148;8.204;2022-10-16T06:00:59;101062.47;;;18.31;54.19
61287;BME280;56412;53.148;8.204;2022-10-16T06:03:26;101070.00;;;18.46;53.83
61287;BME280;56412;53.148;8.204;2022-10-16T06:05:52;101060.75;;;18.42;53.91
61287;BME280;56412;53.148;8.204;2022-10-16T06:08:18;101060.41;;;18.35;54.16
61287;BME280;56412;53.148;8.204;2022-10-16T06:10:45;101061.53;;;18.32;54.41
61287;BME280;56412;53.148;8.204;2022-10-16T06:13:12;101061.56;;;18.42;54.20
61287;BME280;56412;53.148;8.204;2022-10-16T06:15:38;101060.84;;;18.40;54.15
61287;BME280;56412;53.148;8.204;2022-10-16T06:18:09;101061.69;;;18.41;54.15
61287;BME280;56412;53.148;8.204;2022-10-16T06:20:35;101063.56;;;18.29;54.60
61287;BME280;56412;53.148;8.204;2022-10-16T06:23:01;101074.88;;;18.29;54.39
61287;BME280;56412;53.148;8.204;2022-10-16T06:25:26;101067.72;;;18.31;54.57
61287;BME280;56412;53.148;8.204;2022-10-16T06:27:52;101078.56;;;18.48;54.05
61287;BME280;56412;53.148;8.204;2022-10-16T06:30:17;101076.25;;;18.54;53.65
61287;BME280;56412;53.148;8.204;2022-10-16T06:32:42;101086.25;;;18.39;54.16
61287;BME280;56412;53.148;8.204;2022-10-16T06:35:07;101085.28;;;18.41;54.20
61287;BME280;56412;53.148;8.204;2022-10-16T06:37:33;101089.91;;;18.58;53.61
61287;BME280;56412;53.148;8.204;2022-10-16T06:39:58;101093.97;;;18.41;54.05
61287;BME280;56412;53.148;8.204;2022-10-16T06:42:25;101102.63;;;18.32;54.76
61287;BME280;56412;53.148;8.204;2022-10-16T06:44:50;101099.97;;;18.53;54.17
61287;BME280;56412;53.148;8.204;2022-10-16T06:47:15;101103.38;;;18.44;54.45
61287;BME280;56412;53.148;8.204;2022-10-16T06:49:40;101108.03;;;18.61;53.80
61287;BME280;56412;53.148;8.204;2022-10-16T06:52:06;101110.38;;;18.64;53.71
61287;BME280;56412;53.148;8.204;2022-10-16T06:54:31;101115.44;;;18.56;53.99
61287;BME280;56412;53.148;8.204;2022-10-16T06:56:56;101112.06;;;18.65;53.85
61287;BME280;56412;53.148;8.204;2022-10-16T06:59:21;101120.72;;;18.35;54.62
61287;BME280;56412;53.148;8.204;2022-10-16T07:01:47;101133.31;;;18.41;54.63
61287;BME280;56412;53.148;8.204;2022-10-16T07:04:13;101128.16;;;18.51;54.49
61287;BME280;56412;53.148;8.204;2022-10-16T07:06:38;101129.72;;;18.63;53.85
61287;BME280;56412;53.148;8.204;2022-10-16T07:09:04;101138.31;;;18.23;54.99
61287;BME280;56412;53.148;8.204;2022-10-16T07:11:31;101142.09;;;18.51;54.24
61287;BME280;56412;53.148;8.204;2022-10-16T07:13:57;101132.19;;;18.65;54.14
61287;BME280;56412;53.148;8.204;2022-10-16T07:16:24;101137.97;;;18.79;53.76
61287;BME280;56412;53.148;8.204;2022-10-16T07:18:51;101139.63;;;18.80;53.46
61287;BME280;56412;53.148;8.204;2022-10-16T07:21:22;101155.75;;;18.76;53.84
61287;BME280;56412;53.148;8.204;2022-10-16T07:23:50;101158.19;;;18.89;53.47
61287;BME280;56412;53.148;8.204;2022-10-16T07:26:20;101156.41;;;18.99;53.32
61287;BME280;56412;53.148;8.204;2022-10-16T07:28:46;101144.03;;;19.11;53.07
61287;BME280;56412;53.148;8.204;2022-10-16T07:31:12;101156.06;;;19.13;52.90
61287;BME280;56412;53.148;8.204;2022-10-16T07:33:39;101152.16;;;19.08;53.12
61287;BME280;56412;53.148;8.204;2022-10-16T07:36:06;101173.25;;;18.96;53.49
61287;BME280;56412;53.148;8.204;2022-10-16T07:38:32;101183.28;;;19.12;53.09
61287;BME280;56412;53.148;8.204;2022-10-16T07:40:58;101171.97;;;19.21;52.84
61287;BME280;56412;53.148;8.204;2022-10-16T07:43:25;101174.50;;;19.33;52.91
61287;BME280;56412;53.148;8.204;2022-10-16T07:45:51;101182.50;;;19.21;52.97
61287;BME280;56412;53.148;8.204;2022-10-16T07:48:17;101185.31;;;19.39;52.53
61287;BME280;56412;53.148;8.204;2022-10-16T07:50:43;101195.53;;;19.33;52.46
61287;BME280;56412;53.148;8.204;2022-10-16T07:53:09;101196.81;;;19.17;52.74
61287;BME280;56412;53.148;8.204;2022-10-16T07:55:35;101210.56;;;19.00;53.41
61287;BME280;56412;53.148;8.204;2022-10-16T07:58:00;101206.19;;;18.79;53.53
61287;BME280;56412;53.148;8.204;2022-10-16T08:00:25;101212.25;;;19.01;53.37
61287;BME280;56412;53.148;8.204;2022-10-16T08:02:50;101213.25;;;18.79;53.84
61287;BME280;56412;53.148;8.204;2022-10-16T08:05:16;101213.19;;;19.21;52.90
61287;BME280;56412;53.148;8.204;2022-10-16T08:07:41;101232.84;;;19.05;53.15
61287;BME280;56412;53.148;8.204;2022-10-16T08:10:19;101229.69;;;19.42;52.34
61287;BME280;56412;53.148;8.204;2022-10-16T08:12:45;101228.44;;;19.46;52.07
61287;BME280;56412;53.148;8.204;2022-10-16T08:15:10;101228.22;;;19.59;52.39
61287;BME280;56412;53.148;8.204;2022-10-16T08:17:36;101235.59;;;19.65;52.09
61287;BME280;56412;53.148;8.204;2022-10-16T08:20:02;101235.06;;;19.91;51.49
61287;BME280;56412;53.148;8.204;2022-10-16T08:22:27;101229.97;;;20.18;50.60
61287;BME280;56412;53.148;8.204;2022-10-16T08:24:53;101230.47;;;19.73;51.14
61287;BME280;56412;53.148;8.204;2022-10-16T08:27:19;101225.66;;;19.38;52.29
61287;BME280;56412;53.148;8.204;2022-10-16T08:29:44;101232.97;;;19.85;51.29
61287;BME280;56412;53.148;8.204;2022-10-16T08:32:09;101236.00;;;19.70;51.39
61287;BME280;56412;53.148;8.204;2022-10-16T08:34:34;101226.63;;;19.78;51.35
61287;BME280;56412;53.148;8.204;2022-10-16T08:37:00;101233.44;;;20.19;50.12
61287;BME280;56412;53.148;8.204;2022-10-16T08:39:25;101239.94;;;20.15;50.05
61287;BME280;56412;53.148;8.204;2022-10-16T08:44:41;101243.97;;;20.38;50.19
61287;BME280;56412;53.148;8.204;2022-10-16T08:47:42;101241.03;;;20.61;48.70
61287;BME280;56412;53.148;8.204;2022-10-16T08:50:18;101249.06;;;20.50;49.62
61287;BME280;56412;53.148;8.204;2022-10-16T08:52:49;101261.53;;;20.28;49.29
61287;BME280;56412;53.148;8.204;2022-10-16T08:55:27;101265.28;;;20.55;49.43
61287;BME280;56412;53.148;8.204;2022-10-16T08:57:57;101258.34;;;20.34;49.71
61287;BME280;56412;53.148;8.204;2022-10-16T09:00:23;101253.06;;;19.86;50.56
61287;BME280;56412;53.148;8.204;2022-10-16T09:02:55;101267.44;;;19.82;50.76
61287;BME280;56412;53.148;8.204;2022-10-16T09:08:13;101270.13;;;20.30;49.33
61287;BME280;56412;53.148;8.204;2022-10-16T09:16:29;101288.50;;;20.20;50.28
61287;BME280;56412;53.148;8.204;2022-10-16T09:19:13;101287.28;;;20.25;49.73
61287;BME280;56412;53.148;8.204;2022-10-16T09:21:45;101298.06;;;20.02;50.20
61287;BME280;56412;53.148;8.204;2022-10-16T09:24:16;101292.28;;;20.67;49.34
61287;BME280;56412;53.148;8.204;2022-10-16T09:26:43;101284.75;;;20.91;48.77
61287;BME280;56412;53.148;8.204;2022-10-16T09:29:13;101300.59;;;20.42;49.74
61287;BME280;56412;53.148;8.204;2022-10-16T09:31:40;101300.31;;;20.55;49.06
61287;BME280;56412;53.148;8.204;2022-10-16T09:34:08;101296.84;;;20.45;49.02
61287;BME280;56412;53.148;8.204;2022-10-16T09:36:46;101300.44;;;20.44;49.72
61287;BME280;56412;53.148;8.204;2022-10-16T09:39:12;101304.94;;;19.93;50.31
61287;BME280;56412;53.148;8.204;2022-10-16T09:41:38;101311.13;;;20.72;49.20
61287;BME280;56412;53.148;8.204;2022-10-16T09:44:40;101315.72;;;20.60;48.87
61287;BME280;56412;53.148;8.204;2022-10-16T09:47:02;101304.75;;;20.84;48.05
61287;BME280;56412;53.148;8.204;2022-10-16T09:49:29;101323.75;;;20.68;47.33
61287;BME280;56412;53.148;8.204;2022-10-16T09:52:11;101330.03;;;21.14;47.55
61287;BME280;56412;53.148;8.204;2022-10-16T09:54:48;101329.00;;;20.78;48.05
61287;BME280;56412;53.148;8.204;2022-10-16T09:57:14;101338.59;;;21.45;47.09
61287;BME280;56412;53.148;8.204;2022-10-16T10:00:15;101340.16;;;21.19;46.42
61287;BME280;56412;53.148;8.204;2022-10-16T10:02:34;101339.53;;;20.78;47.91
61287;BME280;56412;53.148;8.204;2022-10-16T10:05:01;101345.16;;;20.34;48.42
61287;BME280;56412;53.148;8.204;2022-10-16T10:07:32;101331.44;;;21.08;47.09
61287;BME280;56412;53.148;8.204;2022-10-16T10:10:04;101343.69;;;21.57;45.74
61287;BME280;56412;53.148;8.204;2022-10-16T10:12:31;101343.22;;;21.04;46.65
61287;BME280;56412;53.148;8.204;2022-10-16T10:15:21;101342.81;;;20.99;47.10
61287;BME280;56412;53.148;8.204;2022-10-16T10:17:48;101355.56;;;21.04;46.45
61287;BME280;56412;53.148;8.204;2022-10-16T10:22:59;101358.94;;;20.86;46.28
61287;BME280;56412;53.148;8.204;2022-10-16T10:38:47;101380.41;;;20.62;46.12
61287;BME280;56412;53.148;8.204;2022-10-16T10:47:21;101384.59;;;22.61;42.06
61287;BME280;56412;53.148;8.204;2022-10-16T10:50:26;101392.75;;;22.86;41.24
61287;BME280;56412;53.148;8.204;2022-10-16T10:53:23;101406.50;;;23.33;41.09
61287;BME280;56412;53.148;8.204;2022-10-16T11:04:54;101394.25;;;21.03;43.95
61287;BME280;56412;53.148;8.204;2022-10-16T11:07:37;101395.16;;;21.41;43.41
61287;BME280;56412;53.148;8.204;2022-10-16T11:10:15;101392.41;;;21.43;43.33
61287;BME280;56412;53.148;8.204;2022-10-16T11:12:46;101398.16;;;21.66;41.68
61287;BME280;56412;53.148;8.204;2022-10-16T11:15:21;101393.19;;;21.90;42.86
61287;BME280;56412;53.148;8.204;2022-10-16T11:17:53;101403.66;;;22.37;41.14
61287;BME280;56412;53.148;8.204;2022-10-16T11:20:23;101407.50;;;22.25;40.10
61287;BME280;56412;53.148;8.204;2022-10-16T11:23:02;101413.31;;;22.82;40.39
61287;BME280;56412;53.148;8.204;2022-10-16T11:25:38;101415.91;;;22.38;40.68
61287;BME280;56412;53.148;8.204;2022-10-16T11:28:18;101421.41;;;22.63;39.38
61287;BME280;56412;53.148;8.204;2022-10-16T11:30:57;101416.53;;;22.68;40.39
61287;BME280;56412;53.148;8.204;2022-10-16T11:33:30;101439.91;;;22.35;40.67
61287;BME280;56412;53.148;8.204;2022-10-16T11:36:04;101429.59;;;22.14;41.07
61287;BME280;56412;53.148;8.204;2022-10-16T11:41:39;101450.94;;;21.46;40.88
61287;BME280;56412;53.148;8.204;2022-10-16T11:46:43;101437.56;;;22.60;39.89
61287;BME280;56412;53.148;8.204;2022-10-16T11:49:18;101448.66;;;22.18;39.10
61287;BME280;56412;53.148;8.204;2022-10-16T11:51:51;101452.19;;;21.89;38.56
61287;BME280;56412;53.148;8.204;2022-10-16T11:54:43;101461.53;;;21.84;39.34
61287;BME280;56412;53.148;8.204;2022-10-16T11:57:26;101470.22;;;21.57;39.19
61287;BME280;56412;53.148;8.204;2022-10-16T12:08:01;101470.41;;;22.20;37.00
61287;BME280;56412;53.148;8.204;2022-10-16T12:10:40;101472.78;;;22.68;37.63
61287;BME280;56412;53.148;8.204;2022-10-16T12:18:49;101480.75;;;22.59;37.51
61287;BME280;56412;53.148;8.204;2022-10-16T12:21:38;101483.47;;;23.12;36.15
61287;BME280;56412;53.148;8.204;2022-10-16T12:24:05;101484.81;;;23.61;36.30
61287;BME280;56412;53.148;8.204;2022-10-16T12:26:31;101503.19;;;23.00;36.23
61287;BME280;56412;53.148;8.204;2022-10-16T12:29:18;101517.53;;;22.70;36.22
61287;BME280;56412;53.148;8.204;2022-10-16T12:32:25;101509.09;;;23.12;36.30
61287;BME280;56412;53.148;8.204;2022-10-16T12:34:54;101506.00;;;22.43;36.88
61287;BME280;56412;53.148;8.204;2022-10-16T12:37:24;101516.66;;;21.67;37.60
61287;BME280;56412;53.148;8.204;2022-10-16T12:39:56;101507.28;;;22.39;36.97
61287;BME280;56412;53.148;8.204;2022-10-16T12:42:24;101514.13;;;22.32;37.05
61287;BME280;56412;53.148;8.204;2022-10-16T12:44:58;101517.59;;;23.06;35.88
61287;BME280;56412;53.148;8.204;2022-10-16T12:49:58;101525.38;;;23.25;35.67
61287;BME280;56412;53.148;8.204;2022-10-16T12:52:42;101536.16;;;23.14;35.73
61287;BME280;56412;53.148;8.204;2022-10-16T12:55:13;101522.31;;;23.74;35.16
61287;BME280;56412;53.148;8.204;2022-10-16T13:00:34;101522.59;;;23.27;34.86
61287;BME280;56412;53.148;8.204;2022-10-16T13:06:02;101536.16;;;24.54;32.99
61287;BME280;56412;53.148;8.204;2022-10-16T13:28:16;101554.19;;;25.91;31.23
61287;BME280;56412;53.148;8.204;2022-10-16T13:30:50;101555.22;;;25.74;30.39
61287;BME280;56412;53.148;8.204;2022-10-16T13:33:19;101557.13;;;26.68;29.96
61287;BME280;56412;53.148;8.204;2022-10-16T13:35:55;101558.88;;;27.53;28.46
61287;BME280;56412;53.148;8.204;2022-10-16T13:38:23;101557.38;;;25.87;30.12
61287;BME280;56412;53.148;8.204;2022-10-16T13:43:16;101560.56;;;27.31;28.60
61287;BME280;56412;53.148;8.204;2022-10-16T13:45:52;101578.47;;;26.83;29.07
61287;BME280;56412;53.148;8.204;2022-10-16T13:48:18;101587.03;;;25.98;29.71
61287;BME280;56412;53.148;8.204;2022-10-16T13:50:43;101582.41;;;26.00;30.73
61287;BME280;56412;53.148;8.204;2022-10-16T13:53:13;101598.00;;;25.71;30.46
61287;BME280;56412;53.148;8.204;2022-10-16T13:55:39;101591.88;;;24.18;33.13
61287;BME280;56412;53.148;8.204;2022-10-16T13:58:10;101595.06;;;24.22;33.72
61287;BME280;56412;53.148;8.204;2022-10-16T14:00:38;101598.88;;;24.28;33.24
61287;BME280;56412;53.148;8.204;2022-10-16T14:03:05;101606.84;;;24.28;32.90
61287;BME280;56412;53.148;8.204;2022-10-16T14:05:40;101595.81;;;23.52;34.20
61287;BME280;56412;53.148;8.204;2022-10-16T14:08:13;101606.69;;;23.67;33.61
61287;BME280;56412;53.148;8.204;2022-10-16T14:10:39;101611.56;;;23.54;33.94
61287;BME280;56412;53.148;8.204;2022-10-16T14:13:05;101605.66;;;23.78;33.71
61287;BME280;56412;53.148;8.204;2022-10-16T14:15:33;101617.97;;;23.87;33.94
61287;BME280;56412;53.148;8.204;2022-10-16T14:18:01;101618.13;;;23.50;32.92
61287;BME280;56412;53.148;8.204;2022-10-16T14:20:29;101621.38;;;23.44;33.92
61287;BME280;56412;53.148;8.204;2022-10-16T14:23:01;101628.16;;;24.00;33.69
61287;BME280;56412;53.148;8.204;2022-10-16T14:25:44;101634.53;;;23.35;34.36
61287;BME280;56412;53.148;8.204;2022-10-16T14:30:37;101617.69;;;23.54;33.37
61287;BME280;56412;53.148;8.204;2022-10-16T14:35:46;101635.31;;;22.90;34.20
61287;BME280;56412;53.148;8.204;2022-10-16T14:38:35;101621.53;;;22.97;34.19
61287;BME280;56412;53.148;8.204;2022-10-16T14:41:01;101632.53;;;23.55;33.70
61287;BME280;56412;53.148;8.204;2022-10-16T14:43:33;101626.06;;;23.86;32.94
61287;BME280;56412;53.148;8.204;2022-10-16T14:46:01;101631.22;;;23.06;34.36
61287;BME280;56412;53.148;8.204;2022-10-16T14:48:28;101636.38;;;23.25;34.25
61287;BME280;56412;53.148;8.204;2022-10-16T14:50:55;101615.63;;;23.30;33.90
61287;BME280;56412;53.148;8.204;2022-10-16T14:53:20;101636.88;;;23.11;35.24
61287;BME280;56412;53.148;8.204;2022-10-16T14:55:45;101635.34;;;23.36;34.95